PAA23 OPKC-VNKT
Flight info
| Callsign | PAA23 |
|---|---|
| Flight time | 2h 14m |
| Altitude | 39000 |
| Route | DANGI A791 SASRO J62 JJP J20 LKN G598 SMR DCT SIMRA SMRA1G |
| Aircraft | B744/H-SDE3FGHIM1M2RWXY/LB1 |
Departure
| Time | 2026-05-06 08:40 |
|---|---|
| Airport | Jinnah International Airport (OPKC) |
Arrival
| Time | 2026-05-06 10:54 |
|---|---|
| Airport | Tribhuvan International Airport (VNKT) |
| Time | Latitude | Longitude | Altitude | Speed | Heading |
|---|---|---|---|---|---|
| 2026-05-06 08:00 | 24.90320 | 67.16908 | 113 ft | 0 kts | 165° |
| 2026-05-06 08:32 | 24.90321 | 67.16908 | 113 ft | 1 kts | 165° |
| 2026-05-06 08:32 | 24.90345 | 67.16900 | 113 ft | 4 kts | 164° |
| 2026-05-06 08:32 | 24.90368 | 67.16893 | 113 ft | 4 kts | 161° |
| 2026-05-06 08:32 | 24.90386 | 67.16882 | 113 ft | 4 kts | 123° |
| 2026-05-06 08:33 | 24.90396 | 67.16858 | 113 ft | 4 kts | 96° |
| 2026-05-06 08:33 | 24.90396 | 67.16830 | 113 ft | 4 kts | 81° |
| 2026-05-06 08:33 | 24.90393 | 67.16812 | 113 ft | 1 kts | 74° |
| 2026-05-06 08:33 | 24.90392 | 67.16809 | 113 ft | 0 kts | 74° |
| 2026-05-06 08:36 | 24.90394 | 67.16814 | 113 ft | 6 kts | 74° |
| 2026-05-06 08:36 | 24.90416 | 67.16902 | 113 ft | 13 kts | 75° |
| 2026-05-06 08:37 | 24.90442 | 67.16991 | 113 ft | 12 kts | 64° |
| 2026-05-06 08:37 | 24.90510 | 67.17035 | 113 ft | 12 kts | 4° |
| 2026-05-06 08:37 | 24.90572 | 67.17079 | 113 ft | 11 kts | 65° |
| 2026-05-06 08:37 | 24.90590 | 67.17136 | 113 ft | 15 kts | 73° |
| 2026-05-06 08:38 | 24.90633 | 67.17310 | 113 ft | 17 kts | 74° |
| 2026-05-06 08:38 | 24.90681 | 67.17424 | 113 ft | 16 kts | 43° |
| 2026-05-06 08:38 | 24.90778 | 67.17485 | 113 ft | 15 kts | 15° |
| 2026-05-06 08:38 | 24.90859 | 67.17444 | 113 ft | 8 kts | 278° |
| 2026-05-06 08:39 | 24.90855 | 67.17419 | 113 ft | 0 kts | 253° |
| 2026-05-06 08:39 | 24.90845 | 67.17381 | 113 ft | 25 kts | 254° |
| 2026-05-06 08:39 | 24.90730 | 67.16925 | 114 ft | 99 kts | 254° |
| 2026-05-06 08:39 | 24.90480 | 67.15940 | 138 ft | 162 kts | 255° |
| 2026-05-06 08:40 | 24.90210 | 67.14717 | 906 ft | 163 kts | 257° |
| 2026-05-06 08:40 | 24.89822 | 67.13510 | 1625 ft | 178 kts | 237° |
| 2026-05-06 08:40 | 24.88744 | 67.12640 | 2019 ft | 213 kts | 202° |
| 2026-05-06 08:40 | 24.87177 | 67.12565 | 2306 ft | 243 kts | 171° |
| 2026-05-06 08:41 | 24.85659 | 67.13430 | 2695 ft | 252 kts | 141° |
| 2026-05-06 08:41 | 24.84642 | 67.15009 | 3214 ft | 256 kts | 117° |
| 2026-05-06 08:41 | 24.84032 | 67.16863 | 3872 ft | 258 kts | 107° |
| 2026-05-06 08:41 | 24.83580 | 67.18777 | 4613 ft | 259 kts | 103° |
| 2026-05-06 08:42 | 24.83199 | 67.20726 | 5329 ft | 262 kts | 101° |
| 2026-05-06 08:42 | 24.82849 | 67.22696 | 6051 ft | 263 kts | 101° |
| 2026-05-06 08:42 | 24.82504 | 67.24687 | 6626 ft | 266 kts | 101° |
| 2026-05-06 08:42 | 24.82156 | 67.26693 | 6823 ft | 268 kts | 101° |
| 2026-05-06 08:43 | 24.81810 | 67.28686 | 6853 ft | 268 kts | 101° |
| 2026-05-06 08:43 | 24.81455 | 67.30732 | 6842 ft | 269 kts | 101° |
| 2026-05-06 08:43 | 24.81109 | 67.32725 | 6845 ft | 268 kts | 101° |
| 2026-05-06 08:43 | 24.80760 | 67.34742 | 6846 ft | 268 kts | 101° |
| 2026-05-06 08:44 | 24.80412 | 67.36748 | 6846 ft | 267 kts | 101° |
| 2026-05-06 08:44 | 24.80062 | 67.38765 | 6855 ft | 267 kts | 101° |
| 2026-05-06 08:44 | 24.79688 | 67.40772 | 6850 ft | 268 kts | 105° |
| 2026-05-06 08:44 | 24.79043 | 67.42704 | 6848 ft | 276 kts | 113° |
| 2026-05-06 08:45 | 24.78170 | 67.44641 | 6852 ft | 286 kts | 118° |
| 2026-05-06 08:45 | 24.77179 | 67.46558 | 6849 ft | 290 kts | 120° |
| 2026-05-06 08:45 | 24.76154 | 67.48484 | 6847 ft | 291 kts | 120° |
| 2026-05-06 08:45 | 24.75166 | 67.50399 | 6847 ft | 291 kts | 119° |
| 2026-05-06 08:46 | 24.74183 | 67.52348 | 6845 ft | 290 kts | 119° |
| 2026-05-06 08:46 | 24.73210 | 67.54287 | 6843 ft | 290 kts | 119° |
| 2026-05-06 08:46 | 24.72234 | 67.56234 | 6846 ft | 290 kts | 119° |
| 2026-05-06 08:46 | 24.71261 | 67.58177 | 6848 ft | 291 kts | 119° |
| 2026-05-06 08:47 | 24.70281 | 67.60146 | 7199 ft | 295 kts | 118° |
| 2026-05-06 08:47 | 24.69297 | 67.62123 | 8093 ft | 295 kts | 118° |
| 2026-05-06 08:47 | 24.68305 | 67.64115 | 8840 ft | 297 kts | 118° |
| 2026-05-06 08:47 | 24.67309 | 67.66114 | 9629 ft | 301 kts | 118° |
| 2026-05-06 08:48 | 24.66297 | 67.68141 | 10208 ft | 312 kts | 118° |
| 2026-05-06 08:48 | 24.65198 | 67.70341 | 10499 ft | 336 kts | 118° |
| 2026-05-06 08:48 | 24.64045 | 67.72650 | 10727 ft | 362 kts | 117° |
| 2026-05-06 08:48 | 24.62804 | 67.75134 | 11304 ft | 375 kts | 117° |
| 2026-05-06 08:49 | 24.61534 | 67.77673 | 12151 ft | 382 kts | 116° |
| 2026-05-06 08:49 | 24.60243 | 67.80259 | 13056 ft | 388 kts | 116° |
| 2026-05-06 08:49 | 24.58930 | 67.82884 | 13963 ft | 395 kts | 116° |
| 2026-05-06 08:49 | 24.57598 | 67.85547 | 14948 ft | 400 kts | 116° |
| 2026-05-06 08:50 | 24.56247 | 67.88246 | 15956 ft | 406 kts | 116° |
| 2026-05-06 08:50 | 24.54874 | 67.90987 | 16887 ft | 413 kts | 117° |
| 2026-05-06 08:50 | 24.53489 | 67.93785 | 17788 ft | 419 kts | 117° |
| 2026-05-06 08:50 | 24.52084 | 67.96616 | 18644 ft | 427 kts | 117° |
| 2026-05-06 08:51 | 24.50646 | 67.99504 | 19452 ft | 434 kts | 117° |
| 2026-05-06 08:51 | 24.49182 | 68.02435 | 20245 ft | 441 kts | 117° |
| 2026-05-06 08:51 | 24.47713 | 68.05372 | 20999 ft | 448 kts | 118° |
| 2026-05-06 08:51 | 24.46197 | 68.08398 | 21744 ft | 455 kts | 118° |
| 2026-05-06 08:52 | 24.44658 | 68.11466 | 22477 ft | 462 kts | 118° |
| 2026-05-06 08:52 | 24.43097 | 68.14577 | 23189 ft | 469 kts | 118° |
| 2026-05-06 08:52 | 24.41507 | 68.17742 | 23869 ft | 476 kts | 118° |
| 2026-05-06 08:52 | 24.39900 | 68.20939 | 24509 ft | 483 kts | 118° |
| 2026-05-06 08:53 | 24.38265 | 68.24190 | 25093 ft | 490 kts | 118° |
| 2026-05-06 08:53 | 24.36605 | 68.27486 | 25676 ft | 497 kts | 118° |
| 2026-05-06 08:53 | 24.34922 | 68.30828 | 26228 ft | 504 kts | 118° |
| 2026-05-06 08:53 | 24.33212 | 68.34220 | 26756 ft | 511 kts | 118° |
| 2026-05-06 08:54 | 24.31482 | 68.37650 | 27269 ft | 517 kts | 118° |
| 2026-05-06 08:54 | 24.29726 | 68.41129 | 27771 ft | 524 kts | 118° |
| 2026-05-06 08:54 | 24.27951 | 68.44643 | 28264 ft | 530 kts | 118° |
| 2026-05-06 08:54 | 24.26166 | 68.48200 | 28735 ft | 535 kts | 117° |
| 2026-05-06 08:55 | 24.24351 | 68.51802 | 29190 ft | 541 kts | 118° |
| 2026-05-06 08:55 | 24.22518 | 68.55422 | 29626 ft | 547 kts | 118° |
| 2026-05-06 08:55 | 24.20659 | 68.59084 | 30049 ft | 552 kts | 118° |
| 2026-05-06 08:55 | 24.18809 | 68.62725 | 30500 ft | 555 kts | 118° |
| 2026-05-06 08:56 | 24.16922 | 68.66437 | 30956 ft | 559 kts | 118° |
| 2026-05-06 08:56 | 24.15021 | 68.70171 | 31342 ft | 562 kts | 118° |
| 2026-05-06 08:56 | 24.13271 | 68.73993 | 31736 ft | 562 kts | 109° |
| 2026-05-06 08:56 | 24.12254 | 68.78125 | 32107 ft | 560 kts | 98° |
| 2026-05-06 08:57 | 24.11689 | 68.82331 | 32530 ft | 559 kts | 93° |
| 2026-05-06 08:57 | 24.11407 | 68.86568 | 33053 ft | 555 kts | 89° |
| 2026-05-06 08:57 | 24.11312 | 68.90785 | 33572 ft | 553 kts | 87° |
| 2026-05-06 08:57 | 24.11305 | 68.94945 | 34009 ft | 552 kts | 86° |
| 2026-05-06 08:58 | 24.11291 | 68.99197 | 34428 ft | 552 kts | 87° |
| 2026-05-06 08:58 | 24.11253 | 69.03338 | 34902 ft | 551 kts | 87° |
| 2026-05-06 08:58 | 24.11200 | 69.07536 | 35339 ft | 550 kts | 88° |
| 2026-05-06 08:58 | 24.11138 | 69.11715 | 35739 ft | 550 kts | 88° |
| 2026-05-06 08:59 | 24.11078 | 69.15906 | 36074 ft | 550 kts | 88° |
| 2026-05-06 08:59 | 24.11031 | 69.20089 | 36445 ft | 550 kts | 88° |
| 2026-05-06 08:59 | 24.10975 | 69.24276 | 36825 ft | 549 kts | 88° |
| 2026-05-06 08:59 | 24.10912 | 69.28439 | 37188 ft | 548 kts | 88° |
| 2026-05-06 09:00 | 24.10846 | 69.32632 | 37505 ft | 548 kts | 89° |
| 2026-05-06 09:00 | 24.10776 | 69.36798 | 37884 ft | 546 kts | 89° |
| 2026-05-06 09:00 | 24.10706 | 69.40944 | 38290 ft | 544 kts | 89° |
| 2026-05-06 09:00 | 24.10633 | 69.45090 | 38524 ft | 546 kts | 89° |
| 2026-05-06 09:01 | 24.10559 | 69.49250 | 38794 ft | 546 kts | 89° |
| 2026-05-06 09:01 | 24.10407 | 69.57513 | 38830 ft | 546 kts | 90° |
| 2026-05-06 09:02 | 24.10250 | 69.65821 | 38827 ft | 545 kts | 90° |
| 2026-05-06 09:02 | 24.10090 | 69.74064 | 38830 ft | 533 kts | 90° |
| 2026-05-06 09:03 | 24.09930 | 69.82094 | 38830 ft | 524 kts | 90° |
| 2026-05-06 09:03 | 24.09768 | 69.90020 | 38831 ft | 519 kts | 90° |
| 2026-05-06 09:04 | 24.09603 | 69.97924 | 38831 ft | 520 kts | 90° |
| 2026-05-06 09:04 | 24.09433 | 70.05808 | 38830 ft | 520 kts | 90° |
| 2026-05-06 09:05 | 24.09260 | 70.13717 | 38830 ft | 520 kts | 90° |
| 2026-05-06 09:05 | 24.09081 | 70.21650 | 38829 ft | 520 kts | 90° |
| 2026-05-06 09:06 | 24.08899 | 70.29569 | 38828 ft | 520 kts | 90° |
| 2026-05-06 09:06 | 24.08712 | 70.37497 | 38829 ft | 521 kts | 90° |
| 2026-05-06 09:07 | 24.08522 | 70.45430 | 38828 ft | 521 kts | 90° |
| 2026-05-06 09:07 | 24.08327 | 70.53360 | 38827 ft | 521 kts | 90° |
| 2026-05-06 09:08 | 24.08129 | 70.61250 | 38828 ft | 522 kts | 90° |
| 2026-05-06 09:08 | 24.07944 | 70.69198 | 38827 ft | 522 kts | 90° |
| 2026-05-06 09:09 | 24.07737 | 70.77171 | 38826 ft | 522 kts | 90° |
| 2026-05-06 09:09 | 24.07518 | 70.85081 | 38835 ft | 523 kts | 90° |
| 2026-05-06 09:10 | 24.07295 | 70.93054 | 38837 ft | 523 kts | 90° |
| 2026-05-06 09:10 | 24.07434 | 70.97021 | 38825 ft | 521 kts | 78° |
| 2026-05-06 09:10 | 24.08410 | 71.00814 | 38849 ft | 517 kts | 66° |
| 2026-05-06 09:11 | 24.11491 | 71.07870 | 38823 ft | 511 kts | 56° |
| 2026-05-06 09:11 | 24.15212 | 71.14403 | 38808 ft | 507 kts | 52° |
| 2026-05-06 09:12 | 24.19026 | 71.20894 | 38807 ft | 507 kts | 52° |
| 2026-05-06 09:12 | 24.22790 | 71.27442 | 38807 ft | 507 kts | 53° |
| 2026-05-06 09:13 | 24.26545 | 71.33994 | 38807 ft | 507 kts | 52° |
| 2026-05-06 09:13 | 24.30285 | 71.40515 | 38807 ft | 507 kts | 53° |
| 2026-05-06 09:14 | 24.34031 | 71.47083 | 38808 ft | 507 kts | 53° |
| 2026-05-06 09:14 | 24.37776 | 71.53656 | 38808 ft | 507 kts | 53° |
| 2026-05-06 09:15 | 24.41524 | 71.60223 | 38809 ft | 508 kts | 53° |
| 2026-05-06 09:15 | 24.45227 | 71.66762 | 38810 ft | 508 kts | 53° |
| 2026-05-06 09:16 | 24.48954 | 71.73356 | 38810 ft | 508 kts | 53° |
| 2026-05-06 09:16 | 24.52676 | 71.79944 | 38812 ft | 508 kts | 53° |
| 2026-05-06 09:17 | 24.56399 | 71.86512 | 38813 ft | 507 kts | 53° |
| 2026-05-06 09:17 | 24.60158 | 71.93090 | 38815 ft | 508 kts | 53° |
| 2026-05-06 09:18 | 24.63932 | 71.99663 | 38814 ft | 508 kts | 52° |
| 2026-05-06 09:18 | 24.67684 | 72.06251 | 38795 ft | 508 kts | 53° |
| 2026-05-06 09:19 | 24.71428 | 72.12849 | 38794 ft | 508 kts | 52° |
| 2026-05-06 09:19 | 24.75169 | 72.19450 | 38805 ft | 509 kts | 52° |
| 2026-05-06 09:20 | 24.78895 | 72.26027 | 38843 ft | 510 kts | 52° |
| 2026-05-06 09:20 | 24.82680 | 72.32628 | 38845 ft | 510 kts | 52° |
| 2026-05-06 09:21 | 24.86460 | 72.39243 | 38845 ft | 510 kts | 52° |
| 2026-05-06 09:21 | 24.90239 | 72.45868 | 38845 ft | 510 kts | 52° |
| 2026-05-06 09:22 | 24.94012 | 72.52493 | 38844 ft | 511 kts | 52° |
| 2026-05-06 09:22 | 24.97776 | 72.59083 | 38844 ft | 511 kts | 52° |
| 2026-05-06 09:23 | 25.01582 | 72.65702 | 38833 ft | 510 kts | 52° |
| 2026-05-06 09:23 | 25.05355 | 72.72344 | 38833 ft | 510 kts | 52° |
| 2026-05-06 09:24 | 25.09120 | 72.78995 | 38834 ft | 511 kts | 52° |
| 2026-05-06 09:24 | 25.12865 | 72.85615 | 38835 ft | 511 kts | 52° |
| 2026-05-06 09:25 | 25.16635 | 72.92276 | 38836 ft | 511 kts | 52° |
| 2026-05-06 09:25 | 25.20424 | 72.98923 | 38837 ft | 511 kts | 52° |
| 2026-05-06 09:26 | 25.23570 | 73.04457 | 38840 ft | 512 kts | 52° |
| 2026-05-06 09:26 | 25.27377 | 73.11107 | 38841 ft | 512 kts | 52° |
| 2026-05-06 09:27 | 25.31161 | 73.17769 | 38841 ft | 512 kts | 52° |
| 2026-05-06 09:27 | 25.34940 | 73.24451 | 38841 ft | 512 kts | 52° |
| 2026-05-06 09:28 | 25.38717 | 73.31139 | 38841 ft | 512 kts | 52° |
| 2026-05-06 09:28 | 25.42464 | 73.37776 | 38841 ft | 512 kts | 51° |
| 2026-05-06 09:29 | 25.46280 | 73.44431 | 38841 ft | 512 kts | 51° |
| 2026-05-06 09:29 | 25.50092 | 73.51099 | 38841 ft | 512 kts | 51° |
| 2026-05-06 09:30 | 25.53897 | 73.57770 | 38840 ft | 513 kts | 51° |
| 2026-05-06 09:30 | 25.57706 | 73.64459 | 38840 ft | 513 kts | 51° |
| 2026-05-06 09:31 | 25.61536 | 73.71161 | 38840 ft | 513 kts | 51° |
| 2026-05-06 09:31 | 25.65350 | 73.77799 | 38840 ft | 513 kts | 51° |
| 2026-05-06 09:32 | 25.69154 | 73.84500 | 38840 ft | 513 kts | 51° |
| 2026-05-06 09:32 | 25.72942 | 73.91193 | 38841 ft | 513 kts | 51° |
| 2026-05-06 09:33 | 25.76742 | 73.97911 | 38845 ft | 513 kts | 51° |
| 2026-05-06 09:33 | 25.80531 | 74.04572 | 38845 ft | 513 kts | 50° |
| 2026-05-06 09:34 | 25.84410 | 74.11239 | 38845 ft | 513 kts | 50° |
| 2026-05-06 09:34 | 25.88267 | 74.17903 | 38845 ft | 513 kts | 50° |
| 2026-05-06 09:35 | 25.92117 | 74.24576 | 38845 ft | 513 kts | 50° |
| 2026-05-06 09:35 | 25.95963 | 74.31256 | 38845 ft | 513 kts | 51° |
| 2026-05-06 09:36 | 25.99805 | 74.37883 | 38846 ft | 512 kts | 50° |
| 2026-05-06 09:36 | 26.03665 | 74.44553 | 38846 ft | 513 kts | 50° |
| 2026-05-06 09:37 | 26.07520 | 74.51246 | 38846 ft | 513 kts | 51° |
| 2026-05-06 09:37 | 26.11369 | 74.57944 | 38846 ft | 513 kts | 51° |
| 2026-05-06 09:38 | 26.15212 | 74.64645 | 38846 ft | 513 kts | 51° |
| 2026-05-06 09:38 | 26.19024 | 74.71301 | 38846 ft | 513 kts | 51° |
| 2026-05-06 09:39 | 26.22857 | 74.78005 | 38846 ft | 513 kts | 51° |
| 2026-05-06 09:39 | 26.26692 | 74.84722 | 38847 ft | 513 kts | 51° |
| 2026-05-06 09:40 | 26.30519 | 74.91435 | 38847 ft | 513 kts | 51° |
| 2026-05-06 09:40 | 26.36256 | 75.01518 | 38846 ft | 513 kts | 51° |
| 2026-05-06 09:41 | 26.40082 | 75.08254 | 38846 ft | 513 kts | 51° |
| 2026-05-06 09:41 | 26.43882 | 75.14954 | 38846 ft | 513 kts | 51° |
| 2026-05-06 09:42 | 26.47715 | 75.21722 | 38846 ft | 513 kts | 51° |
| 2026-05-06 09:42 | 26.51501 | 75.28418 | 38845 ft | 513 kts | 51° |
| 2026-05-06 09:43 | 26.55312 | 75.35167 | 38845 ft | 513 kts | 51° |
| 2026-05-06 09:43 | 26.59111 | 75.41907 | 38846 ft | 513 kts | 51° |
| 2026-05-06 09:44 | 26.62917 | 75.48668 | 38846 ft | 514 kts | 51° |
| 2026-05-06 09:44 | 26.66732 | 75.55430 | 38846 ft | 514 kts | 51° |
| 2026-05-06 09:45 | 26.70542 | 75.62203 | 38846 ft | 514 kts | 51° |
| 2026-05-06 09:45 | 26.74335 | 75.68986 | 38846 ft | 514 kts | 52° |
| 2026-05-06 09:46 | 26.78096 | 75.75724 | 38846 ft | 513 kts | 52° |
| 2026-05-06 09:46 | 26.81455 | 75.82793 | 38856 ft | 521 kts | 68° |
| 2026-05-06 09:47 | 26.82529 | 75.90897 | 38855 ft | 533 kts | 83° |
| 2026-05-06 09:47 | 26.82521 | 75.99256 | 38848 ft | 538 kts | 89° |
| 2026-05-06 09:48 | 26.82270 | 76.07648 | 38845 ft | 539 kts | 89° |
| 2026-05-06 09:48 | 26.82142 | 76.16034 | 38844 ft | 539 kts | 88° |
| 2026-05-06 09:49 | 26.82026 | 76.24372 | 38843 ft | 539 kts | 89° |
| 2026-05-06 09:49 | 26.81880 | 76.32780 | 38841 ft | 539 kts | 89° |
| 2026-05-06 09:50 | 26.81730 | 76.41178 | 38840 ft | 539 kts | 89° |
| 2026-05-06 09:50 | 26.81582 | 76.49528 | 38838 ft | 539 kts | 88° |
| 2026-05-06 09:51 | 26.81571 | 76.57921 | 38827 ft | 539 kts | 87° |
| 2026-05-06 09:51 | 26.81562 | 76.66312 | 38820 ft | 539 kts | 88° |
| 2026-05-06 09:52 | 26.81539 | 76.74707 | 38816 ft | 539 kts | 88° |
| 2026-05-06 09:52 | 26.81518 | 76.83105 | 38812 ft | 540 kts | 87° |
| 2026-05-06 09:53 | 26.81535 | 76.91515 | 38807 ft | 540 kts | 88° |
| 2026-05-06 09:53 | 26.81500 | 76.99891 | 38803 ft | 540 kts | 88° |
| 2026-05-06 09:54 | 26.81454 | 77.08310 | 38799 ft | 541 kts | 88° |
| 2026-05-06 09:54 | 26.81408 | 77.16740 | 38794 ft | 541 kts | 88° |
| 2026-05-06 09:55 | 26.81314 | 77.25162 | 38791 ft | 541 kts | 89° |
| 2026-05-06 09:55 | 26.81188 | 77.33584 | 38787 ft | 541 kts | 89° |
| 2026-05-06 09:56 | 26.81059 | 77.42020 | 38784 ft | 541 kts | 89° |
| 2026-05-06 09:56 | 26.80926 | 77.50406 | 38781 ft | 541 kts | 89° |
| 2026-05-06 09:57 | 26.80799 | 77.58837 | 38778 ft | 541 kts | 89° |
| 2026-05-06 09:57 | 26.80699 | 77.67269 | 38773 ft | 541 kts | 89° |
| 2026-05-06 09:58 | 26.80573 | 77.75714 | 38771 ft | 542 kts | 89° |
| 2026-05-06 09:58 | 26.80437 | 77.84107 | 38771 ft | 543 kts | 89° |
| 2026-05-06 09:59 | 26.80293 | 77.92558 | 38770 ft | 543 kts | 89° |
| 2026-05-06 09:59 | 26.80143 | 78.01015 | 38771 ft | 543 kts | 89° |
| 2026-05-06 10:00 | 26.79989 | 78.09464 | 38773 ft | 542 kts | 90° |
| 2026-05-06 10:00 | 26.79829 | 78.17906 | 38775 ft | 542 kts | 90° |
| 2026-05-06 10:01 | 26.79664 | 78.26356 | 38778 ft | 542 kts | 90° |
| 2026-05-06 10:01 | 26.79494 | 78.34800 | 38781 ft | 542 kts | 90° |
| 2026-05-06 10:02 | 26.79321 | 78.43194 | 38782 ft | 543 kts | 90° |
| 2026-05-06 10:02 | 26.79141 | 78.51633 | 38785 ft | 543 kts | 90° |
| 2026-05-06 10:03 | 26.78957 | 78.60077 | 38786 ft | 542 kts | 90° |
| 2026-05-06 10:03 | 26.78767 | 78.68515 | 38787 ft | 542 kts | 90° |
| 2026-05-06 10:04 | 26.78592 | 78.76951 | 38787 ft | 542 kts | 90° |
| 2026-05-06 10:04 | 26.78396 | 78.85343 | 38787 ft | 542 kts | 90° |
| 2026-05-06 10:05 | 26.78183 | 78.93772 | 38787 ft | 541 kts | 90° |
| 2026-05-06 10:05 | 26.77965 | 79.02189 | 38787 ft | 541 kts | 90° |
| 2026-05-06 10:06 | 26.77754 | 79.10604 | 38786 ft | 541 kts | 90° |
| 2026-05-06 10:06 | 26.77657 | 79.19030 | 38784 ft | 540 kts | 90° |
| 2026-05-06 10:07 | 26.77550 | 79.27444 | 38784 ft | 540 kts | 90° |
| 2026-05-06 10:07 | 26.77432 | 79.35791 | 38783 ft | 540 kts | 90° |
| 2026-05-06 10:08 | 26.77308 | 79.44202 | 38782 ft | 540 kts | 90° |
| 2026-05-06 10:08 | 26.77208 | 79.52605 | 38777 ft | 539 kts | 90° |
| 2026-05-06 10:09 | 26.77099 | 79.61000 | 38775 ft | 539 kts | 90° |
| 2026-05-06 10:09 | 26.76973 | 79.69406 | 38773 ft | 539 kts | 90° |
| 2026-05-06 10:10 | 26.76840 | 79.77798 | 38771 ft | 539 kts | 90° |
| 2026-05-06 10:10 | 26.76726 | 79.86145 | 38769 ft | 539 kts | 90° |
| 2026-05-06 10:11 | 26.76581 | 79.94528 | 38766 ft | 538 kts | 89° |
| 2026-05-06 10:11 | 26.77168 | 80.02873 | 38767 ft | 538 kts | 83° |
| 2026-05-06 10:12 | 26.77972 | 80.11205 | 38763 ft | 538 kts | 83° |
| 2026-05-06 10:12 | 26.78637 | 80.18116 | 38760 ft | 538 kts | 83° |
| 2026-05-06 10:13 | 26.79432 | 80.26447 | 38759 ft | 538 kts | 83° |
| 2026-05-06 10:13 | 26.80222 | 80.34780 | 38759 ft | 538 kts | 83° |
| 2026-05-06 10:14 | 26.81006 | 80.43107 | 38758 ft | 538 kts | 83° |
| 2026-05-06 10:14 | 26.81785 | 80.51444 | 38759 ft | 539 kts | 83° |
| 2026-05-06 10:15 | 26.82563 | 80.59812 | 38759 ft | 539 kts | 83° |
| 2026-05-06 10:15 | 26.83328 | 80.68105 | 38759 ft | 539 kts | 83° |
| 2026-05-06 10:16 | 26.84094 | 80.76459 | 38758 ft | 539 kts | 83° |
| 2026-05-06 10:16 | 26.84856 | 80.84816 | 38758 ft | 539 kts | 83° |
| 2026-05-06 10:17 | 26.85611 | 80.93167 | 38757 ft | 539 kts | 83° |
| 2026-05-06 10:17 | 26.86374 | 81.01650 | 38759 ft | 555 kts | 83° |
| 2026-05-06 10:18 | 26.87151 | 81.10351 | 38759 ft | 566 kts | 83° |
| 2026-05-06 10:18 | 26.87926 | 81.19098 | 38759 ft | 568 kts | 84° |
| 2026-05-06 10:19 | 26.88702 | 81.27908 | 38759 ft | 567 kts | 84° |
| 2026-05-06 10:19 | 26.89470 | 81.36692 | 38760 ft | 567 kts | 84° |
| 2026-05-06 10:20 | 26.90234 | 81.45502 | 38760 ft | 567 kts | 84° |
| 2026-05-06 10:20 | 26.90993 | 81.54313 | 38760 ft | 568 kts | 84° |
| 2026-05-06 10:21 | 26.91747 | 81.63136 | 38760 ft | 568 kts | 84° |
| 2026-05-06 10:21 | 26.92491 | 81.71896 | 38760 ft | 568 kts | 84° |
| 2026-05-06 10:22 | 26.93235 | 81.80724 | 38760 ft | 568 kts | 84° |
| 2026-05-06 10:22 | 26.93971 | 81.89528 | 38759 ft | 568 kts | 84° |
| 2026-05-06 10:23 | 26.94702 | 81.98337 | 38759 ft | 568 kts | 84° |
| 2026-05-06 10:23 | 26.95429 | 82.07157 | 38759 ft | 568 kts | 85° |
| 2026-05-06 10:24 | 26.96145 | 82.15924 | 38759 ft | 569 kts | 85° |
| 2026-05-06 10:24 | 26.96861 | 82.24759 | 38758 ft | 569 kts | 85° |
| 2026-05-06 10:25 | 26.97571 | 82.33589 | 38758 ft | 569 kts | 85° |
| 2026-05-06 10:25 | 26.98276 | 82.42414 | 38757 ft | 569 kts | 85° |
| 2026-05-06 10:26 | 26.98976 | 82.51254 | 38756 ft | 569 kts | 85° |
| 2026-05-06 10:26 | 26.99669 | 82.60081 | 38755 ft | 568 kts | 85° |
| 2026-05-06 10:27 | 27.00358 | 82.68918 | 38753 ft | 568 kts | 85° |
| 2026-05-06 10:27 | 27.01041 | 82.77756 | 38750 ft | 568 kts | 85° |
| 2026-05-06 10:28 | 27.01714 | 82.86536 | 38747 ft | 568 kts | 85° |
| 2026-05-06 10:28 | 27.02387 | 82.95385 | 38744 ft | 568 kts | 85° |
| 2026-05-06 10:29 | 27.03054 | 83.04224 | 38741 ft | 568 kts | 85° |
| 2026-05-06 10:29 | 27.03715 | 83.13074 | 38739 ft | 569 kts | 86° |
| 2026-05-06 10:30 | 27.04372 | 83.21925 | 38737 ft | 569 kts | 86° |
| 2026-05-06 10:30 | 27.05023 | 83.30788 | 38736 ft | 569 kts | 86° |
| 2026-05-06 10:31 | 27.05663 | 83.39571 | 38734 ft | 569 kts | 86° |
| 2026-05-06 10:31 | 27.06304 | 83.48437 | 38733 ft | 569 kts | 86° |
| 2026-05-06 10:32 | 27.06938 | 83.57298 | 38734 ft | 569 kts | 86° |
| 2026-05-06 10:32 | 27.07568 | 83.66163 | 38692 ft | 569 kts | 86° |
| 2026-05-06 10:33 | 27.07878 | 83.70566 | 38310 ft | 564 kts | 86° |
| 2026-05-06 10:33 | 27.08181 | 83.74881 | 37591 ft | 561 kts | 86° |
| 2026-05-06 10:33 | 27.08487 | 83.79245 | 36872 ft | 559 kts | 86° |
| 2026-05-06 10:33 | 27.08788 | 83.83584 | 36156 ft | 556 kts | 86° |
| 2026-05-06 10:34 | 27.09087 | 83.87893 | 35599 ft | 550 kts | 86° |
| 2026-05-06 10:34 | 27.09380 | 83.92142 | 35020 ft | 544 kts | 86° |
| 2026-05-06 10:34 | 27.09670 | 83.96365 | 34432 ft | 539 kts | 87° |
| 2026-05-06 10:34 | 27.09956 | 84.00547 | 33850 ft | 535 kts | 87° |
| 2026-05-06 10:35 | 27.10240 | 84.04697 | 33262 ft | 530 kts | 87° |
| 2026-05-06 10:35 | 27.10518 | 84.08808 | 32688 ft | 525 kts | 87° |
| 2026-05-06 10:35 | 27.10793 | 84.12880 | 32122 ft | 520 kts | 87° |
| 2026-05-06 10:35 | 27.11064 | 84.16914 | 31561 ft | 514 kts | 87° |
| 2026-05-06 10:36 | 27.11330 | 84.20887 | 31006 ft | 509 kts | 87° |
| 2026-05-06 10:36 | 27.11589 | 84.24779 | 30462 ft | 503 kts | 87° |
| 2026-05-06 10:36 | 27.11848 | 84.28672 | 29912 ft | 497 kts | 87° |
| 2026-05-06 10:36 | 27.12103 | 84.32523 | 29363 ft | 492 kts | 87° |
| 2026-05-06 10:37 | 27.12354 | 84.36332 | 28803 ft | 486 kts | 87° |
| 2026-05-06 10:37 | 27.12601 | 84.40093 | 28242 ft | 481 kts | 87° |
| 2026-05-06 10:37 | 27.12845 | 84.43825 | 27682 ft | 476 kts | 87° |
| 2026-05-06 10:37 | 27.13085 | 84.47512 | 27122 ft | 471 kts | 87° |
| 2026-05-06 10:38 | 27.13321 | 84.51161 | 26563 ft | 466 kts | 87° |
| 2026-05-06 10:38 | 27.13555 | 84.54770 | 26007 ft | 461 kts | 87° |
| 2026-05-06 10:38 | 27.13785 | 84.58342 | 25451 ft | 456 kts | 87° |
| 2026-05-06 10:38 | 27.14014 | 84.61887 | 24897 ft | 451 kts | 87° |
| 2026-05-06 10:39 | 27.14274 | 84.65389 | 24345 ft | 447 kts | 86° |
| 2026-05-06 10:39 | 27.14519 | 84.68845 | 23797 ft | 442 kts | 87° |
| 2026-05-06 10:39 | 27.14747 | 84.72271 | 23250 ft | 437 kts | 87° |
| 2026-05-06 10:39 | 27.14962 | 84.75615 | 22715 ft | 432 kts | 87° |
| 2026-05-06 10:40 | 27.15174 | 84.78962 | 22177 ft | 427 kts | 87° |
| 2026-05-06 10:40 | 27.15383 | 84.82274 | 21642 ft | 423 kts | 87° |
| 2026-05-06 10:40 | 27.15590 | 84.85546 | 21110 ft | 418 kts | 87° |
| 2026-05-06 10:40 | 27.15795 | 84.88785 | 20583 ft | 413 kts | 87° |
| 2026-05-06 10:41 | 27.15998 | 84.91988 | 20055 ft | 409 kts | 87° |
| 2026-05-06 10:41 | 27.16202 | 84.95158 | 19529 ft | 404 kts | 87° |
| 2026-05-06 10:41 | 27.16404 | 84.98258 | 19135 ft | 389 kts | 87° |
| 2026-05-06 10:41 | 27.16626 | 85.01228 | 18696 ft | 376 kts | 86° |
| 2026-05-06 10:42 | 27.16896 | 85.04125 | 18216 ft | 371 kts | 83° |
| 2026-05-06 10:42 | 27.17390 | 85.06954 | 17735 ft | 368 kts | 75° |
| 2026-05-06 10:42 | 27.18286 | 85.09647 | 17243 ft | 366 kts | 64° |
| 2026-05-06 10:42 | 27.19657 | 85.12034 | 16772 ft | 362 kts | 50° |
| 2026-05-06 10:43 | 27.21486 | 85.13944 | 16314 ft | 358 kts | 37° |
| 2026-05-06 10:43 | 27.23603 | 85.15399 | 15843 ft | 354 kts | 25° |
| 2026-05-06 10:43 | 27.25910 | 85.16278 | 15502 ft | 346 kts | 16° |
| 2026-05-06 10:44 | 27.30266 | 85.18026 | 15157 ft | 324 kts | 21° |
| 2026-05-06 10:44 | 27.32340 | 85.19007 | 14754 ft | 325 kts | 21° |
| 2026-05-06 10:44 | 27.34445 | 85.19938 | 14322 ft | 323 kts | 19° |
| 2026-05-06 10:44 | 27.36592 | 85.20658 | 13896 ft | 321 kts | 12° |
| 2026-05-06 10:45 | 27.38786 | 85.21047 | 13485 ft | 318 kts | 4° |
| 2026-05-06 10:45 | 27.40972 | 85.20916 | 13096 ft | 312 kts | 351° |
| 2026-05-06 10:45 | 27.43121 | 85.20676 | 12714 ft | 310 kts | 357° |
| 2026-05-06 10:45 | 27.45262 | 85.20890 | 12320 ft | 308 kts | 9° |
| 2026-05-06 10:46 | 27.47146 | 85.21284 | 11950 ft | 307 kts | 10° |
| 2026-05-06 10:46 | 27.49271 | 85.21861 | 11523 ft | 306 kts | 14° |
| 2026-05-06 10:46 | 27.51308 | 85.22552 | 11108 ft | 305 kts | 17° |
| 2026-05-06 10:46 | 27.53270 | 85.23384 | 10701 ft | 304 kts | 21° |
| 2026-05-06 10:47 | 27.55164 | 85.24419 | 10288 ft | 303 kts | 28° |
| 2026-05-06 10:47 | 27.56877 | 85.25739 | 10061 ft | 294 kts | 39° |
| 2026-05-06 10:47 | 27.58301 | 85.27352 | 9862 ft | 288 kts | 50° |
| 2026-05-06 10:47 | 27.59408 | 85.29238 | 9474 ft | 289 kts | 61° |
| 2026-05-06 10:48 | 27.60137 | 85.31318 | 9081 ft | 285 kts | 77° |
| 2026-05-06 10:48 | 27.60523 | 85.33478 | 8800 ft | 276 kts | 75° |
| 2026-05-06 10:48 | 27.61099 | 85.35502 | 8540 ft | 264 kts | 70° |
| 2026-05-06 10:48 | 27.61777 | 85.37351 | 8410 ft | 246 kts | 65° |
| 2026-05-06 10:49 | 27.62557 | 85.39010 | 8235 ft | 232 kts | 60° |
| 2026-05-06 10:49 | 27.63422 | 85.40512 | 8148 ft | 234 kts | 54° |
| 2026-05-06 10:49 | 27.64480 | 85.41931 | 8053 ft | 234 kts | 49° |
| 2026-05-06 10:49 | 27.65583 | 85.43251 | 7961 ft | 226 kts | 46° |
| 2026-05-06 10:50 | 27.66643 | 85.44462 | 7852 ft | 207 kts | 45° |
| 2026-05-06 10:50 | 27.67657 | 85.45576 | 7749 ft | 201 kts | 43° |
| 2026-05-06 10:50 | 27.68716 | 85.46510 | 7528 ft | 188 kts | 31° |
| 2026-05-06 10:50 | 27.69891 | 85.47048 | 7446 ft | 183 kts | 18° |
| 2026-05-06 10:51 | 27.71154 | 85.47249 | 7212 ft | 183 kts | 359° |
| 2026-05-06 10:51 | 27.72380 | 85.46950 | 6841 ft | 174 kts | 342° |
| 2026-05-06 10:51 | 27.73396 | 85.46360 | 6600 ft | 163 kts | 327° |
| 2026-05-06 10:51 | 27.74155 | 85.45472 | 6423 ft | 154 kts | 309° |
| 2026-05-06 10:52 | 27.74691 | 85.44422 | 6240 ft | 154 kts | 296° |
| 2026-05-06 10:52 | 27.74978 | 85.43261 | 6006 ft | 153 kts | 279° |
| 2026-05-06 10:52 | 27.74965 | 85.42087 | 5812 ft | 146 kts | 265° |
| 2026-05-06 10:52 | 27.74764 | 85.40962 | 5617 ft | 146 kts | 255° |
| 2026-05-06 10:53 | 27.74395 | 85.39897 | 5419 ft | 145 kts | 245° |
| 2026-05-06 10:53 | 27.73890 | 85.38929 | 5228 ft | 145 kts | 236° |
| 2026-05-06 10:53 | 27.73207 | 85.38098 | 5027 ft | 144 kts | 225° |
| 2026-05-06 10:53 | 27.72429 | 85.37390 | 4776 ft | 144 kts | 217° |
| 2026-05-06 10:54 | 27.71529 | 85.36849 | 4588 ft | 147 kts | 208° |
| 2026-05-06 10:54 | 27.70638 | 85.36381 | 4405 ft | 134 kts | 208° |
| 2026-05-06 10:54 | 27.69914 | 85.36028 | 4404 ft | 89 kts | 201° |
| 2026-05-06 10:54 | 27.69474 | 85.35826 | 4404 ft | 48 kts | 202° |
| 2026-05-06 10:55 | 27.69225 | 85.35718 | 4404 ft | 28 kts | 202° |
| 2026-05-06 10:55 | 27.69132 | 85.35678 | 4403 ft | 6 kts | 199° |
| 2026-05-06 10:55 | 27.69080 | 85.35649 | 4403 ft | 10 kts | 226° |
| 2026-05-06 10:55 | 27.69096 | 85.35559 | 4403 ft | 18 kts | 349° |
| 2026-05-06 10:56 | 27.69261 | 85.35615 | 4403 ft | 34 kts | 23° |
| 2026-05-06 10:56 | 27.69430 | 85.35694 | 4403 ft | 20 kts | 21° |
| 2026-05-06 10:56 | 27.69520 | 85.35734 | 4403 ft | 8 kts | 20° |
| 2026-05-06 10:56 | 27.69556 | 85.35748 | 4403 ft | 12 kts | 20° |
| 2026-05-06 10:57 | 27.69651 | 85.35791 | 4403 ft | 12 kts | 28° |
| 2026-05-06 10:57 | 27.69724 | 85.35827 | 4403 ft | 11 kts | 15° |
| 2026-05-06 10:57 | 27.69774 | 85.35840 | 4403 ft | 7 kts | 355° |
| 2026-05-06 10:57 | 27.69799 | 85.35828 | 4403 ft | 0 kts | 309° |
| 2026-05-06 10:58 | 27.69799 | 85.35827 | 4403 ft | 0 kts | 309° |
| 2026-05-06 10:58 | 27.69804 | 85.35803 | 4403 ft | 10 kts | 278° |
| 2026-05-06 10:58 | 27.69815 | 85.35768 | 4403 ft | 0 kts | 292° |